Time;durP1;ratioP1;P1;durP2;ratioP2;P2;SDS_P1;SDS_P2;PMS_P1;PMS_P2;Temp;Humidity;BMP_temperature;BMP_pressure;BME280_temperature;BME280_humidity;BME280_pressure;Samples;Min_cycle;Max_cycle;Signal;HPM_P1;HPM_P2
2023/08/16 00:00:03;;;;;;;18.55;14.57;;;28.10;99.90;;;;;;5011948;28;20121;-52
2023/08/16 00:02:29;;;;;;;19.52;15.77;;;28.00;99.90;;;;;;5046082;22;20069;-54
2023/08/16 00:04:54;;;;;;;21.10;16.73;;;28.00;99.90;;;;;;5011851;28;20030;-54
2023/08/16 00:07:20;;;;;;;22.17;14.93;;;28.00;99.90;;;;;;5011525;28;20096;-54
2023/08/16 00:09:46;;;;;;;20.92;14.25;;;28.00;99.90;;;;;;5011724;28;20026;-54
2023/08/16 00:12:12;;;;;;;18.38;13.40;;;28.00;99.90;;;;;;5011594;28;20029;-54
2023/08/16 00:14:37;;;;;;;18.83;13.38;;;28.00;99.90;;;;;;5011613;28;20108;-54
2023/08/16 00:17:03;;;;;;;16.25;12.98;;;28.00;99.90;;;;;;5011547;28;20130;-54
2023/08/16 00:19:29;;;;;;;18.38;11.57;;;28.00;99.90;;;;;;5011647;28;20069;-54
2023/08/16 00:21:55;;;;;;;12.55;10.57;;;28.00;99.90;;;;;;5010582;28;20022;-55
2023/08/16 00:24:21;;;;;;;14.27;7.07;;;28.00;99.90;;;;;;5011718;28;20513;-54
2023/08/16 00:26:46;;;;;;;10.75;5.38;;;28.00;99.90;;;;;;5011477;28;20433;-54
2023/08/16 00:29:12;;;;;;;11.43;5.35;;;27.90;99.90;;;;;;5011626;28;20120;-54
2023/08/16 00:31:38;;;;;;;14.25;6.82;;;27.90;99.90;;;;;;5011478;28;20121;-54
2023/08/16 00:34:04;;;;;;;15.43;6.35;;;27.90;99.90;;;;;;5011342;28;20112;-54
2023/08/16 00:36:29;;;;;;;9.77;5.68;;;27.90;99.90;;;;;;5011480;28;20038;-54
2023/08/16 00:38:55;;;;;;;7.82;4.55;;;27.90;99.90;;;;;;5011651;28;20104;-55
2023/08/16 00:41:21;;;;;;;9.80;4.57;;;27.90;99.90;;;;;;5011446;28;20108;-54
2023/08/16 00:43:47;;;;;;;11.52;4.60;;;27.90;99.90;;;;;;5011424;28;20403;-55
2023/08/16 00:46:14;;;;;;;14.55;6.57;;;27.90;99.90;;;;;;5011611;28;20080;-54
2023/08/16 00:48:43;;;;;;;15.20;7.88;;;27.90;99.90;;;;;;5011431;28;20018;-55
2023/08/16 00:51:10;;;;;;;14.30;7.68;;;27.90;99.90;;;;;;5011729;28;20398;-54
2023/08/16 00:53:38;;;;;;;11.52;7.47;;;27.90;99.90;;;;;;5015198;28;20026;-55
2023/08/16 00:56:05;;;;;;;14.63;8.82;;;28.00;99.90;;;;;;5014922;28;20508;-55
2023/08/16 00:58:32;;;;;;;12.25;8.73;;;28.00;99.90;;;;;;5014213;28;20021;-55
2023/08/16 01:00:58;;;;;;;22.88;10.68;;;28.00;99.90;;;;;;5014370;28;20101;-54
2023/08/16 01:03:24;;;;;;;13.25;10.02;;;28.00;99.90;;;;;;5013821;28;20049;-55
2023/08/16 01:05:50;;;;;;;17.88;12.00;;;28.00;99.90;;;;;;5012780;28;20398;-55
2023/08/16 01:08:16;;;;;;;20.08;11.48;;;28.00;99.90;;;;;;5014323;28;20022;-54
2023/08/16 01:10:42;;;;;;;22.00;14.85;;;27.90;99.90;;;;;;5013304;28;20561;-55
2023/08/16 01:13:13;;;;;;;21.73;15.25;;;27.90;99.90;;;;;;5014580;28;20102;-56
2023/08/16 01:15:44;;;;;;;19.85;13.68;;;27.90;99.90;;;;;;5013578;28;20037;-56
2023/08/16 01:18:11;;;;;;;23.65;14.35;;;27.80;99.90;;;;;;5014932;28;20026;-55
2023/08/16 01:20:40;;;;;;;25.35;14.65;;;27.80;99.90;;;;;;5014589;28;20068;-55
2023/08/16 01:23:09;;;;;;;20.13;14.68;;;27.80;99.90;;;;;;5012350;28;20112;-55
2023/08/16 01:25:42;;;;;;;21.83;15.10;;;27.80;99.90;;;;;;5014725;28;20026;-55
2023/08/16 01:28:09;;;;;;;24.02;15.13;;;27.70;99.90;;;;;;5014498;28;20026;-54
2023/08/16 01:30:35;;;;;;;;;;;27.70;99.90;;;;;;5014992;28;20021;-55
2023/08/16 01:33:11;;;;;;;22.52;15.38;;;27.70;99.90;;;;;;5014691;28;19913;-55
2023/08/16 01:35:38;;;;;;;22.10;14.82;;;27.70;99.90;;;;;;5014399;28;20141;-55
2023/08/16 01:38:05;;;;;;;18.58;15.02;;;27.60;99.90;;;;;;5014395;28;20026;-56
2023/08/16 01:40:37;;;;;;;;;;;27.60;99.90;;;;;;5014884;28;20046;-56
2023/08/16 01:43:06;;;;;;;21.73;15.32;;;27.60;99.90;;;;;;5014263;28;19948;-55
2023/08/16 01:45:33;;;;;;;21.63;16.05;;;27.60;99.90;;;;;;5014083;28;20097;-56
2023/08/16 01:48:00;;;;;;;23.83;17.45;;;27.60;99.90;;;;;;5014337;28;20030;-56
2023/08/16 01:50:26;;;;;;;22.92;19.15;;;27.60;99.90;;;;;;5012876;28;20034;-55
2023/08/16 01:52:52;;;;;;;21.02;17.77;;;27.50;99.90;;;;;;5014201;28;20624;-56
2023/08/16 01:55:18;;;;;;;24.25;18.70;;;27.50;99.90;;;;;;5012906;28;20036;-56
2023/08/16 01:57:45;;;;;;;24.55;17.23;;;27.50;99.90;;;;;;5013900;28;20018;-55
2023/08/16 02:00:12;;;;;;;28.23;19.33;;;27.50;99.90;;;;;;5014505;28;20034;-56
2023/08/16 02:02:38;;;;;;;20.33;16.98;;;27.50;99.90;;;;;;5013562;28;20049;-56
2023/08/16 02:05:04;;;;;;;22.52;18.10;;;27.50;99.90;;;;;;5013849;28;20038;-56
2023/08/16 02:07:30;;;;;;;26.38;18.15;;;27.40;99.90;;;;;;5012733;28;20029;-55
2023/08/16 02:09:56;;;;;;;26.35;19.30;;;27.50;99.90;;;;;;5013806;28;20030;-55
2023/08/16 02:12:22;;;;;;;25.83;20.83;;;27.40;99.90;;;;;;5013772;28;20351;-57
2023/08/16 02:14:47;;;;;;;28.20;20.40;;;27.40;99.90;;;;;;5028673;28;20445;-55
2023/08/16 02:17:13;;;;;;;32.42;21.75;;;27.40;99.90;;;;;;5013624;28;20022;-55
2023/08/16 02:19:41;;;;;;;25.92;20.95;;;27.40;99.90;;;;;;5013339;28;20034;-55
2023/08/16 02:22:06;;;;;;;27.92;22.98;;;27.30;99.90;;;;;;5013591;28;20040;-55
2023/08/16 02:24:32;;;;;;;29.35;23.23;;;27.30;99.90;;;;;;5013543;28;20474;-55
2023/08/16 02:26:58;;;;;;;24.00;17.92;;;27.30;99.90;;;;;;5013369;28;20474;-55
2023/08/16 02:29:24;;;;;;;26.23;22.05;;;27.30;99.90;;;;;;5028565;28;20033;-56
2023/08/16 02:31:49;;;;;;;28.83;21.48;;;27.30;99.90;;;;;;5028418;28;20382;-56
2023/08/16 02:34:15;;;;;;;23.23;20.63;;;27.30;99.90;;;;;;5013210;28;20033;-54
2023/08/16 02:36:41;;;;;;;30.35;21.17;;;27.30;99.90;;;;;;5013030;28;20026;-55
2023/08/16 02:39:08;;;;;;;30.95;19.42;;;27.40;99.90;;;;;;5013013;28;20057;-53
2023/08/16 02:41:34;;;;;;;22.92;18.00;;;27.30;99.90;;;;;;5013125;28;20018;-54
2023/08/16 02:44:00;;;;;;;24.38;18.50;;;27.30;99.90;;;;;;5013330;28;20505;-54
2023/08/16 02:46:26;;;;;;;26.77;19.45;;;27.30;99.90;;;;;;5012980;28;20030;-54
2023/08/16 02:48:52;;;;;;;24.73;18.40;;;27.30;99.90;;;;;;5012989;28;20100;-56
2023/08/16 02:51:17;;;;;;;22.88;18.05;;;27.20;99.90;;;;;;5012985;28;20486;-56
2023/08/16 02:53:43;;;;;;;22.30;15.75;;;27.20;99.90;;;;;;5012834;28;20029;-56
2023/08/16 02:56:09;;;;;;;24.13;17.40;;;27.30;99.90;;;;;;5012843;28;20037;-56
2023/08/16 02:58:35;;;;;;;22.25;17.08;;;27.20;99.90;;;;;;5012883;28;20026;-56
2023/08/16 03:01:00;;;;;;;18.95;15.27;;;27.20;99.90;;;;;;5012867;28;20121;-55
2023/08/16 03:03:26;;;;;;;22.95;15.25;;;27.20;99.90;;;;;;5012685;28;20381;-55
2023/08/16 03:05:52;;;;;;;20.88;15.20;;;27.20;99.90;;;;;;5012611;28;20493;-55
2023/08/16 03:08:18;;;;;;;19.00;14.52;;;27.20;99.90;;;;;;5012528;28;20104;-55
2023/08/16 03:10:43;;;;;;;18.63;14.38;;;27.20;99.90;;;;;;5012607;28;20058;-55
2023/08/16 03:13:09;;;;;;;26.70;17.08;;;27.20;99.90;;;;;;5012574;28;20105;-55
2023/08/16 03:15:35;;;;;;;32.13;14.85;;;27.20;99.90;;;;;;5011980;28;20125;-55
2023/08/16 03:18:01;;;;;;;25.95;15.55;;;27.20;99.90;;;;;;5012447;28;20124;-55
2023/08/16 03:20:27;;;;;;;16.67;11.65;;;27.20;99.90;;;;;;5012377;28;20037;-55
2023/08/16 03:22:53;;;;;;;18.73;11.02;;;27.20;99.90;;;;;;5012238;28;20390;-55
2023/08/16 03:25:18;;;;;;;22.25;10.27;;;27.20;99.90;;;;;;5012400;28;20449;-54
2023/08/16 03:27:44;;;;;;;14.95;9.95;;;27.20;99.90;;;;;;5012194;28;20037;-55
2023/08/16 03:30:11;;;;;;;17.08;10.75;;;27.20;99.90;;;;;;5012005;28;20076;-54
2023/08/16 03:32:36;;;;;;;16.50;9.80;;;27.20;99.90;;;;;;5012511;28;20113;-54
2023/08/16 03:35:04;;;;;;;22.08;12.05;;;27.20;99.90;;;;;;5012240;28;20026;-54
2023/08/16 03:37:31;;;;;;;23.95;12.60;;;27.20;99.90;;;;;;5011964;28;20037;-55
2023/08/16 03:39:57;;;;;;;;;;;27.20;99.90;;;;;;5012467;28;20065;-55
2023/08/16 03:42:23;;;;;;;17.67;12.75;;;27.20;99.90;;;;;;5012044;28;20007;-56
2023/08/16 03:44:49;;;;;;;16.63;12.05;;;27.20;99.90;;;;;;5012097;28;20470;-55
2023/08/16 03:47:14;;;;;;;21.58;12.43;;;27.20;99.90;;;;;;5011913;28;20045;-55
2023/08/16 03:49:42;;;;;;;22.92;12.50;;;27.20;99.90;;;;;;5010918;28;20080;-55
2023/08/16 03:52:08;;;;;;;18.25;12.02;;;27.20;99.90;;;;;;5010393;28;20026;-55
2023/08/16 03:54:34;;;;;;;23.85;12.48;;;27.30;99.90;;;;;;5010932;28;20093;-54
2023/08/16 03:56:59;;;;;;;20.92;12.77;;;27.20;99.90;;;;;;5008483;28;20065;-54
2023/08/16 03:59:25;;;;;;;19.65;13.05;;;27.20;99.90;;;;;;5010986;28;20038;-54
2023/08/16 04:01:51;;;;;;;15.95;11.45;;;27.20;99.90;;;;;;5011778;28;20430;-55
2023/08/16 04:04:17;;;;;;;24.50;15.57;;;27.20;99.90;;;;;;5011849;28;20045;-54
2023/08/16 04:06:42;;;;;;;22.42;14.43;;;27.30;99.90;;;;;;5011726;28;20033;-54
2023/08/16 04:09:08;;;;;;;24.98;16.83;;;27.30;99.90;;;;;;5011106;28;20454;-55
2023/08/16 04:11:34;;;;;;;16.25;13.05;;;27.30;99.90;;;;;;5011627;28;20072;-55
2023/08/16 04:14:00;;;;;;;22.75;13.50;;;27.30;99.90;;;;;;5010206;28;20460;-54
2023/08/16 04:16:26;;;;;;;19.10;12.60;;;27.30;99.90;;;;;;5011461;28;20560;-54
2023/08/16 04:18:53;;;;;;;17.58;11.90;;;27.30;99.90;;;;;;5011410;28;20462;-55
2023/08/16 04:21:19;;;;;;;19.58;11.55;;;27.30;99.90;;;;;;5011595;28;20101;-54
2023/08/16 04:23:45;;;;;;;18.38;10.73;;;27.30;99.90;;;;;;5011638;28;20053;-55
2023/08/16 04:26:11;;;;;;;20.52;10.93;;;27.30;99.90;;;;;;5012081;28;20061;-54
2023/08/16 04:28:36;;;;;;;16.65;9.45;;;27.30;99.90;;;;;;5015831;28;20029;-54
2023/08/16 04:31:04;;;;;;;12.85;9.50;;;27.20;99.90;;;;;;5004896;28;20080;-55
2023/08/16 04:33:30;;;;;;;;;;;27.20;99.90;;;;;;5001121;28;20104;-54
2023/08/16 04:35:56;;;;;;;18.00;10.45;;;27.10;99.90;;;;;;4995764;28;19906;-54
2023/08/16 04:38:22;;;;;;;18.15;10.65;;;27.10;99.90;;;;;;5000923;28;20030;-54
2023/08/16 04:40:52;;;;;;;19.65;12.00;;;27.10;99.90;;;;;;5000703;28;20108;-55
2023/08/16 04:43:18;;;;;;;16.60;8.55;;;27.00;99.90;;;;;;4995597;28;20029;-55
2023/08/16 04:45:45;;;;;;;15.40;7.03;;;27.00;99.90;;;;;;4995752;28;20039;-54
2023/08/16 04:48:11;;;;;;;11.43;5.83;;;26.90;99.90;;;;;;4995927;28;20740;-56
2023/08/16 04:50:36;;;;;;;10.73;5.32;;;26.90;99.90;;;;;;5000726;28;20022;-55
2023/08/16 04:53:02;;;;;;;11.45;4.72;;;26.80;99.90;;;;;;5000666;28;20030;-55
2023/08/16 04:55:29;;;;;;;15.43;5.22;;;26.80;99.90;;;;;;4995375;28;20046;-55
2023/08/16 04:57:55;;;;;;;17.10;6.88;;;26.70;99.90;;;;;;4995162;28;20105;-55
2023/08/16 05:00:21;;;;;;;18.30;7.68;;;26.70;99.90;;;;;;4995373;28;20574;-55
2023/08/16 05:02:47;;;;;;;19.45;9.30;;;26.70;99.90;;;;;;5014658;28;20490;-55
2023/08/16 05:05:13;;;;;;;16.90;9.40;;;26.70;99.90;;;;;;5005791;28;20033;-55
2023/08/16 05:07:39;;;;;;;10.98;6.45;;;26.70;99.90;;;;;;5010743;28;20076;-57
2023/08/16 05:10:05;;;;;;;12.27;7.55;;;26.70;99.90;;;;;;5014324;28;20022;-56
2023/08/16 05:12:31;;;;;;;21.55;8.48;;;26.80;99.90;;;;;;5014388;28;20394;-57
2023/08/16 05:14:56;;;;;;;14.95;8.75;;;26.80;99.90;;;;;;5014770;28;20028;-56
2023/08/16 05:17:22;;;;;;;16.58;9.95;;;26.80;99.90;;;;;;5014747;28;20034;-56
2023/08/16 05:19:48;;;;;;;15.20;9.73;;;26.90;99.90;;;;;;5014633;28;20121;-56
2023/08/16 05:22:14;;;;;;;15.88;9.75;;;26.80;99.90;;;;;;5014504;28;20029;-56
2023/08/16 05:24:40;;;;;;;14.82;10.05;;;26.90;99.90;;;;;;5014704;28;20029;-56
2023/08/16 05:27:11;;;;;;;16.30;11.07;;;26.90;99.90;;;;;;5014395;28;20022;-56
2023/08/16 05:29:39;;;;;;;18.55;10.85;;;26.90;99.90;;;;;;5014435;28;20057;-56
2023/08/16 05:32:05;;;;;;;18.85;11.60;;;26.90;99.90;;;;;;5014233;28;20481;-56
2023/08/16 05:34:30;;;;;;;22.38;12.63;;;26.90;99.90;;;;;;5014312;28;20045;-56
2023/08/16 05:36:56;;;;;;;20.88;12.80;;;26.90;99.90;;;;;;5013700;28;20022;-55
2023/08/16 05:39:22;;;;;;;22.55;12.80;;;26.90;99.90;;;;;;5013989;28;20037;-56
2023/08/16 05:41:48;;;;;;;25.23;12.90;;;26.90;99.90;;;;;;5014280;28;20053;-55
2023/08/16 05:44:14;;;;;;;18.35;11.82;;;27.00;99.90;;;;;;5014420;28;20165;-55
2023/08/16 05:46:40;;;;;;;18.20;12.90;;;26.90;99.90;;;;;;5014402;28;20025;-56
2023/08/16 05:49:06;;;;;;;21.52;13.63;;;27.00;99.90;;;;;;5014009;28;20029;-56
2023/08/16 05:51:33;;;;;;;20.60;12.00;;;26.90;99.90;;;;;;5014046;28;20450;-55
2023/08/16 05:53:59;;;;;;;18.58;12.30;;;27.00;99.90;;;;;;5013989;28;20105;-55
2023/08/16 05:56:25;;;;;;;22.65;11.77;;;27.00;99.90;;;;;;5014184;28;20125;-55
2023/08/16 05:58:51;;;;;;;14.65;9.60;;;27.00;99.90;;;;;;5013795;28;20109;-55
2023/08/16 06:01:16;;;;;;;20.05;9.45;;;27.00;99.90;;;;;;5013512;28;20053;-55
2023/08/16 06:03:42;;;;;;;23.60;8.77;;;27.00;99.90;;;;;;5014016;28;20034;-56
2023/08/16 06:06:08;;;;;;;20.30;8.20;;;26.90;99.90;;;;;;5013690;28;20037;-56
2023/08/16 06:08:34;;;;;;;24.73;8.75;;;27.00;99.90;;;;;;5013698;28;20102;-56
2023/08/16 06:11:01;;;;;;;21.50;9.05;;;26.90;99.90;;;;;;5013682;28;20026;-56
2023/08/16 06:13:27;;;;;;;23.35;8.85;;;27.00;99.90;;;;;;5013662;28;20025;-56
2023/08/16 06:15:53;;;;;;;23.58;10.90;;;27.00;99.90;;;;;;5013349;28;20382;-56
2023/08/16 06:18:18;;;;;;;22.63;11.32;;;26.90;99.90;;;;;;5013447;28;20033;-56
2023/08/16 06:20:44;;;;;;;21.58;12.32;;;27.00;99.90;;;;;;5013671;28;20084;-55
2023/08/16 06:23:10;;;;;;;23.65;11.82;;;27.00;99.90;;;;;;5013329;28;20029;-55
2023/08/16 06:25:36;;;;;;;20.52;12.40;;;27.00;99.90;;;;;;5013306;28;20088;-55
2023/08/16 06:28:03;;;;;;;25.35;11.73;;;27.00;99.90;;;;;;5013302;28;20026;-55
2023/08/16 06:30:29;;;;;;;26.13;11.93;;;27.00;99.90;;;;;;5013371;28;20022;-55
2023/08/16 06:32:55;;;;;;;36.58;12.25;;;27.00;99.90;;;;;;5013332;28;20762;-55
2023/08/16 06:35:20;;;;;;;39.70;12.60;;;27.00;99.90;;;;;;5013250;28;20373;-56
2023/08/16 06:37:46;;;;;;;38.08;11.52;;;27.00;99.90;;;;;;5013310;28;20022;-55
2023/08/16 06:40:13;;;;;;;47.38;13.10;;;27.00;99.90;;;;;;5013250;28;20042;-55
2023/08/16 06:42:42;;;;;;;40.33;12.38;;;27.00;99.90;;;;;;5013003;28;20018;-55
2023/08/16 06:45:09;;;;;;;49.17;17.25;;;27.00;99.90;;;;;;5013029;28;20034;-56
2023/08/16 06:47:35;;;;;;;39.72;16.40;;;27.10;99.90;;;;;;5013113;28;20021;-56
2023/08/16 06:50:01;;;;;;;39.28;19.67;;;27.10;99.90;;;;;;5012171;28;20030;-56
2023/08/16 06:52:27;;;;;;;34.33;14.48;;;27.10;99.90;;;;;;5011917;28;20030;-55
2023/08/16 06:54:53;;;;;;;31.23;16.23;;;27.10;99.90;;;;;;5012800;28;20049;-55
2023/08/16 06:57:18;;;;;;;30.30;16.52;;;27.10;99.90;;;;;;5013013;28;20083;-56
2023/08/16 06:59:45;;;;;;;23.38;14.90;;;27.10;99.90;;;;;;5013015;28;20065;-55
2023/08/16 07:02:14;;;;;;;30.52;14.48;;;27.20;99.90;;;;;;5011278;28;20038;-56
2023/08/16 07:04:44;;;;;;;29.05;15.50;;;27.20;99.90;;;;;;5012646;28;20557;-56
2023/08/16 07:07:10;;;;;;;36.65;13.88;;;27.20;99.90;;;;;;5012513;28;20067;-56
2023/08/16 07:09:36;;;;;;;23.48;13.27;;;27.20;99.90;;;;;;5012612;28;20509;-56
2023/08/16 07:12:02;;;;;;;24.98;12.77;;;27.30;99.90;;;;;;5011187;28;20029;-56
2023/08/16 07:14:28;;;;;;;23.30;11.75;;;27.30;99.90;;;;;;5011077;28;20033;-56
2023/08/16 07:16:55;;;;;;;27.23;14.93;;;27.30;99.90;;;;;;5012478;28;20474;-56
2023/08/16 07:19:21;;;;;;;47.90;34.78;;;27.40;99.90;;;;;;5012302;28;20405;-56
2023/08/16 07:21:48;;;;;;;32.60;17.50;;;27.40;99.90;;;;;;5012519;28;20037;-56
2023/08/16 07:24:14;;;;;;;20.23;14.70;;;27.40;99.90;;;;;;5012426;28;20378;-56
2023/08/16 07:26:39;;;;;;;26.65;16.02;;;27.40;99.90;;;;;;5012337;28;20036;-56
2023/08/16 07:29:05;;;;;;;19.17;15.00;;;27.50;99.90;;;;;;5011118;28;20037;-56
2023/08/16 07:31:31;;;;;;;22.77;15.00;;;27.40;99.90;;;;;;5010844;28;20053;-56
2023/08/16 07:33:57;;;;;;;16.17;9.80;;;27.50;99.90;;;;;;5011099;28;20386;-56
2023/08/16 07:36:22;;;;;;;15.18;6.97;;;27.50;99.90;;;;;;5012235;28;20065;-56
2023/08/16 07:38:48;;;;;;;16.48;7.53;;;27.60;99.90;;;;;;5012239;28;20026;-56
2023/08/16 07:41:15;;;;;;;14.55;7.32;;;27.60;99.90;;;;;;5012043;28;20037;-56
2023/08/16 07:43:40;;;;;;;17.52;7.25;;;27.50;99.90;;;;;;5011981;28;20017;-56
2023/08/16 07:46:06;;;;;;;13.20;5.82;;;27.60;99.90;;;;;;5011996;28;20105;-56
2023/08/16 07:48:32;;;;;;;15.73;7.78;;;27.60;99.90;;;;;;5011797;28;20061;-55
2023/08/16 07:50:58;;;;;;;14.70;7.65;;;27.60;99.90;;;;;;5011960;28;20378;-56
2023/08/16 07:53:23;;;;;;;24.17;14.77;;;27.70;99.90;;;;;;5011887;28;20026;-56
2023/08/16 07:55:49;;;;;;;15.85;8.48;;;27.70;99.90;;;;;;5012029;28;20101;-56
2023/08/16 07:58:15;;;;;;;31.75;13.45;;;27.70;99.90;;;;;;5011789;28;20083;-55
2023/08/16 08:00:42;;;;;;;15.75;11.60;;;27.80;99.90;;;;;;5011507;28;20042;-56
2023/08/16 08:03:11;;;;;;;20.65;12.43;;;27.80;99.90;;;;;;5011746;28;20026;-57
2023/08/16 08:05:37;;;;;;;18.17;10.77;;;27.80;99.90;;;;;;5011969;28;20397;-56
2023/08/16 08:08:04;;;;;;;15.60;11.52;;;27.80;99.90;;;;;;5011779;28;20041;-55
2023/08/16 08:10:31;;;;;;;17.40;10.98;;;27.90;99.90;;;;;;5011707;28;20021;-55
2023/08/16 08:12:58;;;;;;;20.90;11.50;;;27.90;99.90;;;;;;5011682;28;20022;-55
2023/08/16 08:15:24;;;;;;;17.23;11.27;;;27.90;99.90;;;;;;5011780;28;20084;-55
2023/08/16 08:17:50;;;;;;;23.70;11.65;;;27.90;99.90;;;;;;5011834;28;20263;-57
2023/08/16 08:20:16;;;;;;;16.13;11.05;;;27.90;99.90;;;;;;5011613;28;20108;-56
2023/08/16 08:22:42;;;;;;;12.45;10.23;;;27.90;99.90;;;;;;5011638;28;20014;-54
2023/08/16 08:25:08;;;;;;;19.60;10.20;;;28.00;99.90;;;;;;5011567;28;20389;-55
2023/08/16 08:27:34;;;;;;;20.13;10.30;;;28.00;99.90;;;;;;5011585;28;20038;-55
2023/08/16 08:30:02;;;;;;;15.13;7.93;;;28.00;99.90;;;;;;5011532;28;20231;-56
2023/08/16 08:32:28;;;;;;;14.10;8.55;;;28.00;99.90;;;;;;5011698;28;20099;-56
2023/08/16 08:34:54;;;;;;;17.27;9.20;;;28.10;99.90;;;;;;5011514;28;20474;-56
2023/08/16 08:37:19;;;;;;;19.10;9.75;;;28.00;99.90;;;;;;5011815;28;20026;-55
2023/08/16 08:39:45;;;;;;;15.32;8.50;;;28.10;99.90;;;;;;5011270;28;20034;-56
2023/08/16 08:42:11;;;;;;;15.25;8.75;;;28.10;99.90;;;;;;5011401;28;20025;-56
2023/08/16 08:44:38;;;;;;;21.40;10.25;;;28.10;99.90;;;;;;5011278;28;20030;-55
2023/08/16 08:47:06;;;;;;;18.13;9.27;;;28.20;99.90;;;;;;5011233;28;20434;-56
2023/08/16 08:49:34;;;;;;;14.52;8.02;;;28.20;99.90;;;;;;5010157;28;20393;-55
2023/08/16 08:52:02;;;;;;;21.20;9.70;;;28.20;99.90;;;;;;5011378;28;20018;-56
2023/08/16 08:54:28;;;;;;;13.20;11.18;;;28.20;99.90;;;;;;5011099;28;20028;-56
2023/08/16 08:56:55;;;;;;;20.83;9.88;;;28.20;99.90;;;;;;5011389;28;20026;-56
2023/08/16 08:59:21;;;;;;;16.00;9.60;;;28.20;99.90;;;;;;5011269;28;20125;-56
2023/08/16 09:01:49;;;;;;;15.23;8.45;;;28.20;99.90;;;;;;5011123;28;20054;-56
2023/08/16 09:04:15;;;;;;;21.90;9.95;;;28.30;99.90;;;;;;5011264;28;20030;-55
2023/08/16 09:06:44;;;;;;;17.83;11.60;;;28.30;99.90;;;;;;5011247;28;20060;-56
2023/08/16 09:09:12;;;;;;;18.45;11.52;;;28.30;99.90;;;;;;5011301;28;20478;-56
2023/08/16 09:11:38;;;;;;;16.58;8.82;;;28.30;99.90;;;;;;5009946;28;20041;-56
2023/08/16 09:14:04;;;;;;;20.20;12.52;;;28.30;99.90;;;;;;5014319;28;20030;-56
2023/08/16 09:16:30;;;;;;;15.35;10.77;;;28.30;99.90;;;;;;5015018;28;20044;-57
2023/08/16 09:18:57;;;;;;;17.95;9.90;;;28.40;99.90;;;;;;5014643;28;20044;-56
2023/08/16 09:21:28;;;;;;;15.70;10.27;;;28.40;99.90;;;;;;5014824;28;20084;-56
2023/08/16 09:24:01;;;;;;;12.75;10.13;;;28.40;99.90;;;;;;5014844;28;20140;-56
2023/08/16 09:26:27;;;;;;;20.10;10.55;;;28.40;99.90;;;;;;5014590;28;20032;-56
2023/08/16 09:29:00;;;;;;;15.25;10.05;;;28.40;99.90;;;;;;5014902;28;20037;-56
2023/08/16 09:31:30;;;;;;;21.85;12.32;;;28.30;99.90;;;;;;5014663;28;20075;-55
2023/08/16 09:33:58;;;;;;;21.73;11.00;;;28.30;99.90;;;;;;5014709;28;20029;-56
2023/08/16 09:36:30;;;;;;;12.55;10.23;;;28.30;99.90;;;;;;5014745;28;20041;-56
2023/08/16 09:39:05;;;;;;;17.30;13.15;;;28.30;99.90;;;;;;5014373;28;22041;-56
2023/08/16 09:41:31;;;;;;;22.88;13.38;;;28.30;99.90;;;;;;5014136;28;20029;-56
2023/08/16 09:44:07;;;;;;;21.23;12.35;;;28.30;99.90;;;;;;5014200;28;20061;-56
2023/08/16 09:46:34;;;;;;;16.35;12.40;;;28.30;99.90;;;;;;5014076;28;20111;-55
2023/08/16 09:49:07;;;;;;;17.80;11.65;;;28.30;99.90;;;;;;5014139;28;20022;-56
2023/08/16 09:51:37;;;;;;;17.25;12.90;;;28.30;99.90;;;;;;5013938;28;20022;-56
2023/08/16 09:54:13;;;;;;;26.63;17.17;;;28.30;99.90;;;;;;5014100;28;20025;-56
2023/08/16 09:56:40;;;;;;;24.10;13.82;;;28.30;99.90;;;;;;5013944;28;20025;-57
2023/08/16 09:59:08;;;;;;;22.08;14.48;;;28.30;99.90;;;;;;5013894;28;20025;-56
2023/08/16 10:01:37;;;;;;;21.15;14.85;;;28.40;99.90;;;;;;5013739;28;20468;-55
2023/08/16 10:04:04;;;;;;;26.05;17.33;;;28.30;99.90;;;;;;5013825;28;20053;-55
2023/08/16 10:06:31;;;;;;;22.55;16.67;;;28.30;99.90;;;;;;5013796;28;20385;-57
2023/08/16 10:08:58;;;;;;;21.23;16.48;;;28.30;99.90;;;;;;5012604;28;20029;-56
2023/08/16 10:11:24;;;;;;;20.88;15.30;;;28.30;99.90;;;;;;5014008;28;20029;-56
2023/08/16 10:13:50;;;;;;;26.75;23.63;;;28.30;99.90;;;;;;5013589;28;20178;-55
2023/08/16 10:16:18;;;;;;;20.50;14.98;;;28.30;99.90;;;;;;5013446;28;20022;-56
2023/08/16 10:18:47;;;;;;;18.42;11.95;;;28.30;99.90;;;;;;5013590;28;20030;-56
2023/08/16 10:21:17;;;;;;;22.00;14.35;;;28.30;99.90;;;;;;5013481;28;20048;-56
2023/08/16 10:23:44;;;;;;;17.90;14.07;;;28.30;99.90;;;;;;5013461;28;20022;-56
2023/08/16 10:26:19;;;;;;;20.75;14.82;;;28.20;99.90;;;;;;5013450;28;20382;-56
2023/08/16 10:28:51;;;;;;;18.58;15.80;;;28.30;99.90;;;;;;5013447;28;20045;-57
2023/08/16 10:31:22;;;;;;;15.38;11.00;;;28.20;99.90;;;;;;5013550;28;20024;-56
2023/08/16 10:33:50;;;;;;;18.30;11.45;;;28.20;99.90;;;;;;5013275;28;20021;-57
2023/08/16 10:36:16;;;;;;;14.18;10.70;;;28.20;99.90;;;;;;5011755;28;20037;-56
2023/08/16 10:38:42;;;;;;;15.82;11.25;;;28.20;99.90;;;;;;5011708;28;20512;-56
2023/08/16 10:41:14;;;;;;;16.38;10.40;;;28.20;99.90;;;;;;5013185;28;20026;-57
2023/08/16 10:43:49;;;;;;;11.50;8.00;;;28.20;99.90;;;;;;5013022;28;20026;-57
2023/08/16 10:46:35;;;;;;;15.10;9.77;;;28.20;99.90;;;;;;5013070;28;20433;-56
2023/08/16 10:49:03;;;;;;;10.90;7.13;;;28.20;99.90;;;;;;5012662;28;20087;-56
2023/08/16 10:51:30;;;;;;;13.15;6.38;;;28.20;99.90;;;;;;5013168;28;20075;-56
2023/08/16 10:53:57;;;;;;;12.77;8.25;;;28.30;99.90;;;;;;5012971;28;20026;-56
2023/08/16 10:56:23;;;;;;;14.02;8.30;;;28.30;99.90;;;;;;5012788;28;20080;-56
2023/08/16 10:58:51;;;;;;;14.70;9.20;;;28.30;99.90;;;;;;5012484;28;20026;-56
2023/08/16 11:01:18;;;;;;;14.20;8.80;;;28.40;99.90;;;;;;5012391;28;20046;-56
2023/08/16 11:03:44;;;;;;;11.35;8.95;;;28.40;99.90;;;;;;5011210;28;20504;-56
2023/08/16 11:06:11;;;;;;;10.40;7.68;;;28.40;99.90;;;;;;5012656;28;20069;-56
2023/08/16 11:08:43;;;;;;;;;;;28.40;99.90;;;;;;5011691;28;20068;-56
2023/08/16 11:11:12;;;;;;;15.43;8.30;;;28.40;99.90;;;;;;5012602;28;19952;-56
2023/08/16 11:13:41;;;;;;;14.63;10.65;;;28.40;99.90;;;;;;5012879;28;20022;-55
2023/08/16 11:16:10;;;;;;;23.35;9.73;;;28.50;99.90;;;;;;5012802;28;20037;-56
2023/08/16 11:18:37;;;;;;;12.35;8.00;;;28.50;99.90;;;;;;5012556;28;20389;-56
2023/08/16 11:21:07;;;;;;;13.75;9.60;;;28.50;99.90;;;;;;5012089;28;20114;-57
2023/08/16 11:23:39;;;;;;;9.88;7.25;;;28.60;99.90;;;;;;5011129;28;20192;-56
2023/08/16 11:26:07;;;;;;;11.35;8.98;;;28.60;99.90;;;;;;5012516;28;20018;-56
2023/08/16 11:28:34;;;;;;;12.70;8.70;;;28.60;99.90;;;;;;5012397;28;20093;-56
2023/08/16 11:31:04;;;;;;;14.90;11.13;;;28.50;99.90;;;;;;5012356;28;20026;-56
2023/08/16 11:33:41;;;;;;;18.02;13.68;;;28.60;99.90;;;;;;5012290;28;20129;-56
2023/08/16 11:36:10;;;;;;;11.07;7.57;;;28.50;99.90;;;;;;5011790;28;20026;-56
2023/08/16 11:38:38;;;;;;;23.08;11.85;;;28.60;99.90;;;;;;5012153;28;20101;-56
2023/08/16 11:41:05;;;;;;;21.40;17.80;;;28.60;99.90;;;;;;5012012;28;20125;-56
2023/08/16 11:43:33;;;;;;;23.07;14.17;;;28.50;99.90;;;;;;5012352;28;20026;-56
2023/08/16 11:46:01;;;;;;;24.75;15.18;;;28.60;99.90;;;;;;5012091;28;20338;-56
2023/08/16 11:48:29;;;;;;;9.15;5.47;;;28.50;99.90;;;;;;5012187;28;20022;-56
2023/08/16 11:50:59;;;;;;;16.98;9.27;;;28.50;99.90;;;;;;5011160;28;20483;-57
2023/08/16 11:53:35;;;;;;;11.40;7.35;;;28.50;99.90;;;;;;5011988;28;20057;-56
2023/08/16 11:56:08;;;;;;;18.92;9.55;;;28.50;99.90;;;;;;5012040;28;20113;-57
2023/08/16 11:58:48;;;;;;;15.88;8.63;;;28.50;99.90;;;;;;5011668;28;20025;-57
2023/08/16 12:01:16;;;;;;;14.25;8.82;;;28.60;99.90;;;;;;5011467;28;20050;-56
2023/08/16 12:03:46;;;;;;;17.42;10.18;;;28.60;99.90;;;;;;5011655;28;20109;-57
2023/08/16 12:06:12;;;;;;;14.07;10.55;;;28.60;99.90;;;;;;5011678;28;20176;-56
2023/08/16 12:08:48;;;;;;;13.20;8.10;;;28.70;99.90;;;;;;5011672;28;20020;-56
2023/08/16 12:11:24;;;;;;;11.57;7.72;;;28.70;99.90;;;;;;5011584;28;20496;-56
2023/08/16 12:13:50;;;;;;;12.10;9.07;;;28.80;99.90;;;;;;5011711;28;20030;-56
2023/08/16 12:16:16;;;;;;;16.17;9.30;;;28.80;99.90;;;;;;5011574;28;20026;-57
2023/08/16 12:18:42;;;;;;;13.15;8.13;;;28.80;99.90;;;;;;5011624;28;20025;-57
2023/08/16 12:21:07;;;;;;;16.30;9.20;;;28.80;99.90;;;;;;5011591;28;20053;-57
2023/08/16 12:23:34;;;;;;;15.38;8.57;;;28.70;99.90;;;;;;5011596;28;20026;-56
2023/08/16 12:26:00;;;;;;;16.33;9.57;;;28.60;99.90;;;;;;5011645;28;20018;-56
2023/08/16 12:28:26;;;;;;;20.10;11.25;;;28.60;99.90;;;;;;5011516;28;20339;-56